Time;durP1;ratioP1;P1;durP2;ratioP2;P2;SDS_P1;SDS_P2;PMS_P1;PMS_P2;Temp;Humidity;BMP_temperature;BMP_pressure;BME280_temperature;BME280_humidity;BME280_pressure;Samples;Min_cycle;Max_cycle;Signal;HPM_P1;HPM_P2
2021/06/12 00:00:09;;;;;;;9.07;5.60;;;;;;;22.68;60.75;100307.84;5068390;28;20028;-60
2021/06/12 00:02:35;;;;;;;7.85;5.60;;;;;;;22.67;61.09;100304.22;5062322;28;20027;-60
2021/06/12 00:05:01;;;;;;;9.10;5.80;;;;;;;22.62;60.90;100296.97;5065208;28;20170;-62
2021/06/12 00:07:26;;;;;;;14.07;6.10;;;;;;;22.64;61.03;100307.75;5065161;28;20020;-60
2021/06/12 00:09:52;;;;;;;9.82;5.97;;;;;;;22.62;61.16;100310.88;5070188;28;20040;-60
2021/06/12 00:12:17;;;;;;;9.45;5.88;;;;;;;22.57;61.42;100318.69;5068530;28;20035;-61
2021/06/12 00:14:43;;;;;;;7.55;5.68;;;;;;;22.55;61.56;100312.72;5070107;28;20025;-60
2021/06/12 00:17:09;;;;;;;8.15;5.72;;;;;;;22.45;61.99;100302.94;5069577;28;20021;-60
2021/06/12 00:19:34;;;;;;;9.50;6.22;;;;;;;22.24;62.15;100281.81;5083580;28;20056;-60
2021/06/12 00:22:00;;;;;;;9.52;6.35;;;;;;;22.22;62.67;100289.69;5068300;28;20029;-62
2021/06/12 00:24:26;;;;;;;9.95;6.10;;;;;;;22.11;62.80;100277.53;5067197;28;20017;-60
2021/06/12 00:26:51;;;;;;;8.00;6.13;;;;;;;22.32;62.57;100307.78;5070242;28;20056;-60
2021/06/12 00:29:16;;;;;;;11.77;6.30;;;;;;;22.28;62.65;100309.69;5063519;28;20028;-61
2021/06/12 00:31:42;;;;;;;7.78;6.70;;;;;;;22.25;62.88;100321.50;5074249;28;20032;-61
2021/06/12 00:34:07;;;;;;;10.90;6.38;;;;;;;22.21;63.05;100315.06;5069790;28;20108;-60
2021/06/12 00:36:33;;;;;;;12.38;7.18;;;;;;;22.12;63.30;100318.84;5073398;28;20028;-61
2021/06/12 00:38:58;;;;;;;13.93;7.55;;;;;;;22.06;63.32;100320.28;5072422;28;20016;-60
2021/06/12 00:41:23;;;;;;;9.52;7.57;;;;;;;21.98;63.54;100324.03;5075958;28;20028;-60
2021/06/12 00:43:49;;;;;;;13.95;7.70;;;;;;;21.92;63.78;100329.03;5082005;28;20031;-61
2021/06/12 00:46:15;;;;;;;10.15;7.90;;;;;;;21.83;64.03;100334.75;5071800;28;20021;-60
2021/06/12 00:48:44;;;;;;;10.23;7.57;;;;;;;21.76;64.06;100320.69;5073787;28;20512;-61
2021/06/12 00:51:10;;;;;;;10.43;7.50;;;;;;;21.73;63.95;100323.38;5067709;28;20104;-60
2021/06/12 00:53:42;;;;;;;12.30;8.27;;;;;;;21.74;63.88;100325.78;5062253;28;20032;-61
2021/06/12 00:56:13;;;;;;;12.30;7.90;;;;;;;21.69;64.02;100326.84;5064585;28;20021;-60
2021/06/12 00:58:44;;;;;;;10.52;7.78;;;;;;;21.66;64.03;100335.09;5066863;28;20096;-60
2021/06/12 01:01:13;;;;;;;11.18;8.35;;;;;;;21.65;63.96;100330.72;5069224;28;20496;-60
2021/06/12 01:03:40;;;;;;;11.70;7.97;;;;;;;21.54;64.23;100331.22;5064260;28;20021;-60
2021/06/12 01:06:10;;;;;;;13.13;8.43;;;;;;;21.51;63.88;100320.81;5073144;28;20029;-60
2021/06/12 01:08:37;;;;;;;12.50;8.50;;;;;;;21.57;64.08;100332.47;5073785;28;20492;-61
2021/06/12 01:11:03;;;;;;;12.98;8.32;;;;;;;21.58;64.10;100336.88;5070106;28;20616;-61
2021/06/12 01:13:34;;;;;;;13.77;8.45;;;;;;;21.59;64.19;100337.69;5074809;28;20564;-60
2021/06/12 01:16:03;;;;;;;14.32;9.45;;;;;;;21.56;64.30;100344.72;5073581;28;20070;-60
2021/06/12 01:18:35;;;;;;;12.38;8.57;;;;;;;21.48;64.73;100345.69;5069113;28;20108;-60
2021/06/12 01:21:05;;;;;;;10.98;8.57;;;;;;;21.47;64.48;100355.16;5068568;28;20024;-61
2021/06/12 01:24:14;;;;;;;11.63;8.77;;;;;;;21.44;64.94;100355.88;5069785;28;20025;-61
2021/06/12 01:26:49;;;;;;;10.93;8.00;;;;;;;21.38;64.77;100349.78;5073730;28;20040;-60
2021/06/12 01:29:35;;;;;;;11.32;8.60;;;;;;;21.34;64.87;100355.22;5064351;28;20028;-60
2021/06/12 01:32:02;;;;;;;11.27;8.40;;;;;;;21.27;65.05;100352.25;5075953;28;20035;-62
2021/06/12 01:34:29;;;;;;;10.80;8.70;;;;;;;21.11;65.08;100343.88;5075760;28;20063;-60
2021/06/12 01:36:57;;;;;;;12.95;8.25;;;;;;;21.11;65.58;100348.63;5074323;28;20029;-60
2021/06/12 01:39:27;;;;;;;12.60;8.23;;;;;;;21.03;65.58;100342.03;5078257;28;20029;-60
2021/06/12 01:41:57;;;;;;;12.85;9.23;;;;;;;21.04;65.33;100346.44;5076523;28;20032;-60
2021/06/12 01:44:24;;;;;;;12.88;9.20;;;;;;;20.93;65.45;100329.50;5070139;28;20081;-60
2021/06/12 01:46:51;;;;;;;12.52;8.45;;;;;;;20.93;65.63;100340.59;5071830;28;20029;-60
2021/06/12 01:49:18;;;;;;;18.77;8.00;;;;;;;20.96;65.67;100352.94;5071100;28;20031;-61
2021/06/12 01:51:45;;;;;;;10.63;8.25;;;;;;;20.92;65.71;100341.72;5068790;28;20036;-60
2021/06/12 01:54:13;;;;;;;12.40;8.30;;;;;;;20.80;65.89;100339.81;5072516;28;20032;-60
2021/06/12 01:56:40;;;;;;;10.48;8.13;;;;;;;20.78;66.19;100339.34;5066026;28;20056;-59
2021/06/12 01:59:05;;;;;;;11.40;8.48;;;;;;;20.75;65.96;100329.75;5073237;28;20024;-59
2021/06/12 02:01:33;;;;;;;13.90;8.68;;;;;;;20.69;66.51;100341.41;5073802;28;20054;-62
2021/06/12 02:04:01;;;;;;;11.95;8.48;;;;;;;20.69;66.22;100335.84;5072615;28;20027;-60
2021/06/12 02:06:28;;;;;;;11.32;7.90;;;;;;;20.75;65.98;100348.34;5077057;28;20028;-59
2021/06/12 02:08:54;;;;;;;13.82;8.63;;;;;;;20.80;65.86;100347.28;5067638;28;20077;-60
2021/06/12 02:11:21;;;;;;;11.00;8.60;;;;;;;20.80;65.83;100342.56;5073920;28;20032;-61
2021/06/12 02:13:48;;;;;;;16.10;8.70;;;;;;;20.72;66.02;100347.03;5062667;28;20024;-61
2021/06/12 02:16:15;;;;;;;15.85;9.10;;;;;;;20.67;66.21;100341.75;5070904;28;20028;-60
2021/06/12 02:18:44;;;;;;;11.13;8.30;;;;;;;20.66;65.99;100342.91;5073339;28;20492;-60
2021/06/12 02:21:11;;;;;;;11.38;8.18;;;;;;;20.57;65.96;100343.03;5066646;28;20100;-61
2021/06/12 02:23:38;;;;;;;13.95;8.57;;;;;;;20.54;66.27;100354.81;5074563;28;20037;-61
2021/06/12 02:26:06;;;;;;;13.07;8.38;;;;;;;20.48;66.39;100367.28;5063403;28;20035;-60
2021/06/12 02:28:34;;;;;;;13.13;8.25;;;;;;;20.45;66.39;100357.69;5066805;28;20027;-61
2021/06/12 02:31:11;;;;;;;9.48;8.13;;;;;;;20.35;66.90;100354.56;5070692;28;20029;-60
2021/06/12 02:33:37;;;;;;;13.23;7.80;;;;;;;20.33;66.75;100359.69;5076891;28;20084;-61
2021/06/12 02:36:04;;;;;;;12.60;8.75;;;;;;;20.20;66.60;100345.81;5073878;28;20068;-61
2021/06/12 02:38:30;;;;;;;14.20;8.27;;;;;;;20.32;66.53;100358.06;5070566;28;20028;-60
2021/06/12 02:40:59;;;;;;;11.27;8.30;;;;;;;20.28;66.68;100369.81;5075319;28;20048;-61
2021/06/12 02:43:25;;;;;;;13.25;8.10;;;;;;;20.27;66.68;100359.88;5083076;28;20038;-61
2021/06/12 02:45:51;;;;;;;13.32;8.70;;;;;;;20.24;66.76;100365.31;5074880;28;20039;-61
2021/06/12 02:48:18;;;;;;;11.27;8.80;;;;;;;20.20;66.97;100376.25;5070573;28;20016;-61
2021/06/12 02:50:50;;;;;;;11.05;8.35;;;;;;;20.08;67.57;100377.06;5069459;28;20040;-61
2021/06/12 02:53:17;;;;;;;11.43;8.45;;;;;;;19.99;67.43;100368.03;5063968;28;20052;-61
2021/06/12 02:55:49;;;;;;;10.60;8.68;;;;;;;19.93;67.81;100367.44;5065559;28;20029;-60
2021/06/12 02:58:19;;;;;;;9.18;8.20;;;;;;;19.90;67.89;100362.63;5064792;28;20028;-61
2021/06/12 03:00:48;;;;;;;10.18;8.15;;;;;;;19.96;67.64;100365.94;5075632;28;20024;-60
2021/06/12 03:03:13;;;;;;;11.82;7.72;;;;;;;20.00;67.43;100368.88;5076259;28;20150;-60
2021/06/12 03:05:45;;;;;;;11.30;8.77;;;;;;;20.06;67.37;100367.50;5074565;28;20052;-62
2021/06/12 03:08:13;;;;;;;11.50;8.38;;;;;;;20.03;67.12;100352.38;5072645;28;20104;-60
2021/06/12 03:10:40;;;;;;;13.25;9.23;;;;;;;20.24;66.74;100371.66;5072162;28;20519;-60
2021/06/12 03:13:11;;;;;;;14.18;9.65;;;;;;;20.25;66.78;100376.03;5076035;28;20028;-61
2021/06/12 03:15:37;;;;;;;11.45;8.90;;;;;;;20.25;66.53;100378.78;5073937;28;20028;-61
2021/06/12 03:18:03;;;;;;;13.75;9.82;;;;;;;20.07;66.81;100355.28;5067888;28;20074;-61
2021/06/12 03:20:30;;;;;;;11.18;8.88;;;;;;;20.12;66.88;100377.97;5080433;28;20016;-61
2021/06/12 03:23:01;;;;;;;12.57;9.13;;;;;;;20.12;67.02;100382.72;5066541;28;20032;-61
2021/06/12 03:25:27;;;;;;;14.13;9.23;;;;;;;20.11;66.97;100370.03;5067238;28;20032;-61
2021/06/12 03:27:53;;;;;;;11.50;8.90;;;;;;;20.10;66.79;100383.06;5074477;28;20029;-61
2021/06/12 03:30:19;;;;;;;10.48;9.38;;;;;;;20.08;66.83;100387.34;5075099;28;20081;-61
2021/06/12 03:32:45;;;;;;;13.55;9.60;;;;;;;20.02;67.00;100391.44;5073250;28;20472;-60
2021/06/12 03:35:12;;;;;;;18.88;11.73;;;;;;;19.95;67.19;100386.50;5066949;28;20049;-61
2021/06/12 03:37:39;;;;;;;13.60;10.95;;;;;;;19.81;67.50;100401.41;5069240;28;20025;-61
2021/06/12 03:40:06;;;;;;;13.30;9.93;;;;;;;19.78;67.58;100391.03;5065841;28;20055;-61
2021/06/12 03:42:32;;;;;;;16.48;10.23;;;;;;;19.77;67.41;100397.72;5081748;28;20019;-62
2021/06/12 03:45:01;;;;;;;16.30;9.55;;;;;;;19.79;67.35;100397.38;5074425;28;20027;-60
2021/06/12 03:47:26;;;;;;;12.73;8.48;;;;;;;19.69;67.35;100392.25;5071542;28;20033;-61
2021/06/12 03:49:52;;;;;;;10.00;8.13;;;;;;;19.52;67.29;100371.91;5071376;28;20020;-61
2021/06/12 03:52:24;;;;;;;12.90;8.70;;;;;;;19.47;67.53;100381.22;5072759;28;20020;-61
2021/06/12 03:54:50;;;;;;;10.65;8.48;;;;;;;19.49;67.52;100394.75;5065205;28;20405;-61
2021/06/12 03:57:16;;;;;;;12.73;8.63;;;;;;;19.38;67.57;100388.78;5074911;28;20024;-61
2021/06/12 03:59:43;;;;;;;11.50;8.65;;;;;;;19.35;67.94;100409.63;5071043;28;20124;-61
2021/06/12 04:02:11;;;;;;;11.73;8.77;;;;;;;19.31;68.01;100405.13;5074351;28;20124;-61
2021/06/12 04:04:37;;;;;;;13.95;8.05;;;;;;;19.27;67.93;100399.47;5070408;28;20545;-61
2021/06/12 04:07:02;;;;;;;13.88;9.18;;;;;;;19.42;67.61;100420.16;5075720;28;20552;-60
2021/06/12 04:09:28;;;;;;;12.20;8.30;;;;;;;19.42;67.77;100417.41;5067047;28;20021;-60
2021/06/12 04:11:53;;;;;;;11.73;8.25;;;;;;;19.43;67.93;100423.72;5074748;28;20036;-61
2021/06/12 04:14:19;;;;;;;10.68;7.95;;;;;;;19.49;67.71;100419.63;5073250;28;20147;-61
2021/06/12 04:16:44;;;;;;;10.70;7.85;;;;;;;19.53;67.43;100415.03;5064661;28;20028;-60
2021/06/12 04:19:09;;;;;;;11.48;8.50;;;;;;;19.54;67.44;100416.63;5078139;28;20028;-61
2021/06/12 04:21:35;;;;;;;10.55;8.70;;;;;;;19.55;67.27;100421.03;5076994;28;20048;-61
2021/06/12 04:24:00;;;;;;;12.18;7.90;;;;;;;19.59;67.12;100421.94;5067496;28;20112;-61
2021/06/12 04:26:26;;;;;;;12.88;9.13;;;;;;;19.62;67.07;100424.06;5066172;28;20025;-61
2021/06/12 04:28:51;;;;;;;10.55;8.45;;;;;;;19.64;67.03;100427.28;5069440;28;20028;-61
2021/06/12 04:31:17;;;;;;;10.10;8.32;;;;;;;19.46;66.89;100407.25;5074931;28;20079;-61
2021/06/12 04:33:42;;;;;;;10.73;8.25;;;;;;;19.62;66.76;100431.56;5071863;28;20033;-61
2021/06/12 04:36:07;;;;;;;11.85;9.10;;;;;;;19.64;66.97;100438.34;5064546;28;20053;-61
2021/06/12 04:38:33;;;;;;;10.00;8.82;;;;;;;19.67;66.76;100434.09;5074531;28;20078;-61
2021/06/12 04:40:58;;;;;;;11.15;8.35;;;;;;;19.69;66.74;100437.34;5077042;28;20040;-60
2021/06/12 04:43:24;;;;;;;11.20;8.85;;;;;;;19.62;66.96;100439.84;5066998;28;20029;-61
2021/06/12 04:45:49;;;;;;;11.70;9.10;;;;;;;19.58;67.02;100444.44;5071069;28;20036;-61
2021/06/12 04:48:15;;;;;;;13.70;8.57;;;;;;;19.52;67.54;100443.81;5072856;28;20414;-60
2021/06/12 04:50:40;;;;;;;11.70;8.32;;;;;;;19.55;67.25;100440.38;5077801;28;20135;-61
2021/06/12 04:53:08;;;;;;;10.55;8.02;;;;;;;19.59;67.41;100446.84;5070418;28;20040;-61
2021/06/12 04:55:35;;;;;;;10.95;8.63;;;;;;;19.62;67.09;100446.19;5068886;28;20021;-61
2021/06/12 04:58:01;;;;;;;10.93;7.88;;;;;;;19.60;66.93;100448.47;5065399;28;20033;-61
2021/06/12 05:00:27;;;;;;;9.65;8.13;;;;;;;19.76;66.46;100467.19;5077345;28;20024;-60
2021/06/12 05:02:52;;;;;;;11.27;9.02;;;;;;;19.73;66.61;100460.41;5077831;28;20047;-61
2021/06/12 05:05:18;;;;;;;13.50;8.32;;;;;;;19.66;66.71;100460.13;5077308;28;20077;-60
2021/06/12 05:07:43;;;;;;;10.27;9.13;;;;;;;19.48;67.25;100462.25;5075192;28;20078;-61
2021/06/12 05:10:10;;;;;;;9.98;8.73;;;;;;;19.47;67.34;100464.19;5071284;28;20029;-60
2021/06/12 05:12:37;;;;;;;10.93;8.90;;;;;;;19.52;67.12;100462.38;5077037;28;20039;-60
2021/06/12 05:15:04;;;;;;;13.60;8.80;;;;;;;19.47;67.15;100455.88;5072245;28;20036;-59
2021/06/12 05:17:30;;;;;;;12.20;8.65;;;;;;;19.50;66.92;100462.72;5077791;28;20085;-60
2021/06/12 05:19:55;;;;;;;11.77;9.55;;;;;;;19.52;67.17;100459.63;5081982;28;20107;-60
2021/06/12 05:22:25;;;;;;;13.70;8.85;;;;;;;19.51;67.27;100458.78;5073756;28;20058;-60
2021/06/12 05:24:55;;;;;;;11.68;8.90;;;;;;;19.54;67.13;100463.66;5075863;28;20032;-60
2021/06/12 05:27:21;;;;;;;12.80;9.18;;;;;;;19.45;67.40;100462.91;5065121;28;20040;-60
2021/06/12 05:29:46;;;;;;;11.75;9.73;;;;;;;19.42;67.46;100461.63;5077546;28;20032;-61
2021/06/12 05:32:13;;;;;;;11.82;10.02;;;;;;;19.33;67.70;100467.25;5075267;28;20024;-61
2021/06/12 05:34:40;;;;;;;12.07;9.82;;;;;;;19.32;67.83;100465.63;5076714;28;20072;-60
2021/06/12 05:37:05;;;;;;;15.52;9.23;;;;;;;19.31;67.88;100475.06;5075814;28;20044;-60
2021/06/12 05:39:31;;;;;;;13.93;9.20;;;;;;;18.84;67.85;100406.88;5076021;28;20032;-62
2021/06/12 05:41:56;;;;;;;12.00;9.50;;;;;;;19.29;68.16;100482.06;5073843;28;20024;-59
2021/06/12 05:44:22;;;;;;;12.48;9.18;;;;;;;19.29;67.99;100480.09;5073989;28;20021;-60
2021/06/12 05:46:49;;;;;;;12.95;8.27;;;;;;;19.36;67.84;100479.56;5069397;28;20032;-60
2021/06/12 05:49:15;;;;;;;11.75;8.77;;;;;;;19.30;67.45;100470.66;5077967;28;20501;-59
2021/06/12 05:51:41;;;;;;;13.45;8.75;;;;;;;19.27;67.37;100463.03;5075432;28;20515;-60
2021/06/12 05:54:06;;;;;;;10.90;8.90;;;;;;;19.35;67.34;100475.97;5072246;28;20031;-60
2021/06/12 05:56:32;;;;;;;13.02;9.07;;;;;;;19.41;67.44;100484.09;5070893;28;20549;-61
2021/06/12 05:58:57;;;;;;;13.13;8.95;;;;;;;19.48;67.18;100489.91;5071837;28;20024;-60
2021/06/12 06:01:22;;;;;;;9.90;8.90;;;;;;;19.40;67.54;100488.00;5073025;28;20024;-60
2021/06/12 06:03:48;;;;;;;12.98;8.68;;;;;;;19.46;67.34;100486.66;5077862;28;20028;-60
2021/06/12 06:06:14;;;;;;;12.95;9.07;;;;;;;19.40;67.37;100479.72;5066405;28;20024;-60
2021/06/12 06:08:40;;;;;;;14.82;8.43;;;;;;;19.47;67.29;100494.59;5075933;28;20025;-60
2021/06/12 06:11:05;;;;;;;12.10;8.70;;;;;;;19.47;67.22;100485.50;5075356;28;20032;-59
2021/06/12 06:13:38;;;;;;;10.07;7.70;;;;;;;19.51;67.36;100497.50;5069985;28;20028;-62
2021/06/12 06:16:04;;;;;;;9.85;7.63;;;;;;;19.58;67.20;100502.50;5071223;28;20029;-60
2021/06/12 06:18:30;;;;;;;11.15;8.30;;;;;;;19.58;66.73;100494.22;5077693;28;20077;-59
2021/06/12 06:20:55;;;;;;;11.32;8.13;;;;;;;19.66;66.75;100504.38;5079162;28;20107;-60
2021/06/12 06:23:21;;;;;;;14.13;8.13;;;;;;;19.67;66.70;100506.81;5072942;28;20099;-61
2021/06/12 06:25:46;;;;;;;11.55;8.73;;;;;;;19.53;66.50;100478.63;5073931;28;20025;-62
2021/06/12 06:28:12;;;;;;;8.85;7.75;;;;;;;19.70;66.68;100501.75;5069551;28;20038;-60
2021/06/12 06:30:37;;;;;;;13.32;9.43;;;;;;;19.73;66.58;100509.38;5071015;28;20051;-60
2021/06/12 06:33:03;;;;;;;12.73;8.38;;;;;;;19.14;66.45;100417.94;5076477;28;20078;-60
2021/06/12 06:35:28;;;;;;;12.60;8.48;;;;;;;19.72;66.49;100513.31;5074508;28;20044;-60
2021/06/12 06:37:53;;;;;;;10.48;8.20;;;;;;;19.65;66.78;100514.66;5072086;28;20032;-60
2021/06/12 06:40:19;;;;;;;11.05;8.73;;;;;;;19.57;66.73;100514.72;5078102;28;20477;-60
2021/06/12 06:42:44;;;;;;;11.38;8.65;;;;;;;19.53;67.08;100533.94;5074698;28;20024;-60
2021/06/12 06:45:10;;;;;;;10.93;8.30;;;;;;;19.48;67.31;100523.09;5075340;28;20024;-60
2021/06/12 06:47:36;;;;;;;8.70;7.80;;;;;;;19.51;67.24;100533.44;5072135;28;20035;-60
2021/06/12 06:50:03;;;;;;;11.73;8.23;;;;;;;19.57;67.04;100537.66;5076808;28;20028;-61
2021/06/12 06:52:29;;;;;;;9.32;8.00;;;;;;;19.57;67.06;100534.91;5068531;28;20033;-60
2021/06/12 06:54:54;;;;;;;14.13;7.95;;;;;;;19.58;67.13;100536.50;5071872;28;20020;-60
2021/06/12 06:57:19;;;;;;;10.68;7.88;;;;;;;19.54;67.08;100548.59;5074067;28;20722;-60
2021/06/12 06:59:45;;;;;;;8.85;7.38;;;;;;;19.50;67.29;100554.78;5076479;28;20029;-60
2021/06/12 07:02:10;;;;;;;10.55;8.23;;;;;;;19.45;67.49;100545.84;5076072;28;20086;-60
2021/06/12 07:04:39;;;;;;;11.75;9.05;;;;;;;19.50;67.39;100551.22;5072691;28;20062;-61
2021/06/12 07:07:05;;;;;;;11.43;7.88;;;;;;;19.52;67.29;100554.44;5072477;28;20020;-61
2021/06/12 07:09:31;;;;;;;10.60;8.15;;;;;;;19.47;67.65;100558.19;5075396;28;20069;-61
2021/06/12 07:11:59;;;;;;;8.50;6.32;;;;;;;19.45;67.73;100554.97;5069018;28;20028;-59
2021/06/12 07:14:25;;;;;;;10.82;7.75;;;;;;;19.49;67.67;100549.59;5072278;28;20089;-59
2021/06/12 07:16:50;;;;;;;9.55;8.35;;;;;;;19.48;67.48;100548.75;5066034;28;20035;-59
2021/06/12 07:19:16;;;;;;;14.55;8.40;;;;;;;19.45;67.45;100543.91;5082408;28;20032;-61
2021/06/12 07:21:41;;;;;;;12.15;8.32;;;;;;;19.63;67.21;100557.59;5079159;28;20028;-60
2021/06/12 07:24:07;;;;;;;11.65;8.30;;;;;;;19.70;67.07;100557.91;5061663;28;20028;-59
2021/06/12 07:26:32;;;;;;;13.02;7.65;;;;;;;19.76;66.95;100562.09;5070162;28;20108;-60
2021/06/12 07:28:57;;;;;;;10.30;8.00;;;;;;;19.73;66.78;100559.97;5067910;28;20059;-59
2021/06/12 07:31:23;;;;;;;8.80;7.88;;;;;;;19.82;66.62;100568.22;5075496;28;20441;-59
2021/06/12 07:33:48;;;;;;;10.20;7.35;;;;;;;19.86;66.71;100563.66;5075866;28;20107;-60
2021/06/12 07:36:14;;;;;;;10.02;7.97;;;;;;;19.87;66.47;100564.47;5075680;28;20452;-58
2021/06/12 07:38:39;;;;;;;9.38;6.85;;;;;;;19.81;66.40;100550.00;5075608;28;20032;-59
2021/06/12 07:41:05;;;;;;;12.50;8.23;;;;;;;19.91;66.46;100552.41;5084952;28;20898;-59
2021/06/12 07:43:30;;;;;;;11.93;7.40;;;;;;;20.03;66.06;100557.19;5075679;28;20029;-60
2021/06/12 07:45:57;;;;;;;9.48;7.43;;;;;;;19.98;66.14;100565.66;5076031;28;20029;-59
2021/06/12 07:48:22;;;;;;;11.30;8.45;;;;;;;19.89;66.09;100568.53;5075586;28;20107;-59
2021/06/12 07:50:48;;;;;;;10.27;7.95;;;;;;;19.82;66.27;100569.03;5074581;28;20124;-60
2021/06/12 07:53:13;;;;;;;10.00;8.10;;;;;;;19.72;66.34;100569.41;5073289;28;20035;-59
2021/06/12 07:55:39;;;;;;;10.73;8.40;;;;;;;19.69;66.62;100564.59;5068995;28;20029;-59
2021/06/12 07:58:04;;;;;;;12.20;9.18;;;;;;;19.73;66.61;100570.25;5072909;28;20035;-60
2021/06/12 08:00:30;;;;;;;9.40;8.10;;;;;;;19.75;66.58;100566.00;5075801;28;20032;-59
2021/06/12 08:02:55;;;;;;;13.60;9.32;;;;;;;19.80;66.52;100559.44;5074574;28;20029;-59
2021/06/12 08:05:21;;;;;;;14.85;10.40;;;;;;;19.88;66.45;100566.91;5066511;28;20539;-59
2021/06/12 08:07:47;;;;;;;11.32;8.85;;;;;;;19.90;66.35;100564.63;5072161;28;20064;-60
2021/06/12 08:10:12;;;;;;;13.43;9.25;;;;;;;19.99;66.19;100567.28;5070599;28;20055;-59
2021/06/12 08:12:40;;;;;;;12.93;10.25;;;;;;;20.03;66.22;100567.44;5081528;28;20033;-59
2021/06/12 08:15:06;;;;;;;13.27;9.38;;;;;;;20.00;66.26;100563.38;5069363;28;20468;-59
2021/06/12 08:17:32;;;;;;;13.63;9.75;;;;;;;19.98;66.36;100573.97;5076405;28;20131;-60
2021/06/12 08:19:57;;;;;;;12.25;10.25;;;;;;;20.01;65.99;100570.53;5079555;28;20159;-59
2021/06/12 08:22:23;;;;;;;16.40;9.70;;;;;;;20.06;66.04;100566.75;5076563;28;20052;-59
2021/06/12 08:24:49;;;;;;;12.65;9.27;;;;;;;20.09;66.04;100563.28;5082224;28;20111;-59
2021/06/12 08:27:15;;;;;;;14.50;9.70;;;;;;;20.07;66.09;100571.94;5068000;28;20029;-59
2021/06/12 08:29:40;;;;;;;13.63;9.00;;;;;;;19.85;66.33;100539.09;5079348;28;20126;-59
2021/06/12 08:32:07;;;;;;;10.40;8.40;;;;;;;20.10;66.22;100574.06;5078959;28;20033;-59
2021/06/12 08:34:32;;;;;;;11.45;8.68;;;;;;;20.19;66.08;100568.41;5071547;28;20508;-60
2021/06/12 08:36:58;;;;;;;12.15;7.90;;;;;;;20.20;66.03;100574.78;5068022;28;20481;-58
2021/06/12 08:39:23;;;;;;;13.15;9.88;;;;;;;20.23;65.66;100571.31;5070366;28;20104;-60
2021/06/12 08:41:49;;;;;;;11.25;9.88;;;;;;;20.38;65.48;100583.72;5069379;28;20029;-59
2021/06/12 08:44:14;;;;;;;11.63;9.32;;;;;;;20.29;65.42;100558.88;5069033;28;20088;-59
2021/06/12 08:46:40;;;;;;;12.52;8.70;;;;;;;20.54;65.13;100570.84;5071919;28;20088;-59
2021/06/12 08:49:06;;;;;;;16.58;10.55;;;;;;;20.75;64.53;100586.63;5068866;28;20477;-60
2021/06/12 08:51:33;;;;;;;9.95;8.80;;;;;;;20.83;64.35;100585.72;5068391;28;20108;-60
2021/06/12 08:53:59;;;;;;;13.90;9.10;;;;;;;20.96;64.15;100582.97;5068732;28;20029;-59
2021/06/12 08:56:24;;;;;;;12.52;10.27;;;;;;;20.87;63.72;100558.94;5068219;28;20032;-59
2021/06/12 08:58:50;;;;;;;12.27;9.57;;;;;;;20.91;63.83;100578.44;5067990;28;20025;-59
2021/06/12 09:01:15;;;;;;;12.65;9.10;;;;;;;21.00;63.71;100593.03;5068397;28;20032;-59
2021/06/12 09:03:44;;;;;;;12.52;8.73;;;;;;;21.07;63.60;100592.47;5066580;28;20040;-60
2021/06/12 09:06:10;;;;;;;13.82;9.18;;;;;;;21.08;63.28;100585.72;5068556;28;20028;-59
2021/06/12 09:08:42;;;;;;;11.82;8.82;;;;;;;21.14;63.22;100595.47;5065872;28;20514;-59
2021/06/12 09:11:12;;;;;;;11.52;8.65;;;;;;;21.08;63.20;100574.66;5068689;28;20056;-59
2021/06/12 09:13:54;;;;;;;12.68;8.52;;;;;;;21.16;63.10;100590.34;5058666;28;20032;-59
2021/06/12 09:16:42;;;;;;;13.05;8.40;;;;;;;21.07;62.77;100584.94;5060685;28;20082;-59
2021/06/12 09:19:20;;;;;;;11.75;8.15;;;;;;;21.00;63.21;100587.47;5072027;28;20047;-58
2021/06/12 09:21:47;;;;;;;9.13;7.68;;;;;;;20.98;63.54;100589.78;5069166;28;20046;-59
2021/06/12 09:24:35;;;;;;;12.60;8.75;;;;;;;21.06;63.14;100591.63;5067760;28;20029;-58
2021/06/12 09:27:04;;;;;;;12.25;8.70;;;;;;;21.12;63.14;100595.00;5067470;28;20082;-59
2021/06/12 09:29:37;;;;;;;10.95;9.32;;;;;;;21.12;62.94;100599.72;5067736;28;20103;-57
2021/06/12 09:32:14;;;;;;;12.98;9.73;;;;;;;21.02;63.16;100595.44;5067190;28;20043;-60
2021/06/12 09:34:41;;;;;;;9.73;8.60;;;;;;;21.05;63.26;100590.00;5067025;28;20072;-63
2021/06/12 09:37:33;;;;;;;10.23;8.20;;;;;;;21.22;63.12;100580.69;5068468;28;20032;-59
2021/06/12 09:40:03;;;;;;;13.45;8.45;;;;;;;21.26;63.07;100582.72;5060962;28;20047;-60
2021/06/12 09:42:51;;;;;;;12.13;9.52;;;;;;;21.34;62.48;100585.41;5065953;28;20086;-59
2021/06/12 09:45:24;;;;;;;14.35;8.45;;;;;;;21.36;62.69;100585.84;5067434;28;20033;-59
2021/06/12 09:47:50;;;;;;;11.55;7.75;;;;;;;21.36;62.81;100587.81;5063398;28;20252;-59
2021/06/12 09:50:20;;;;;;;10.63;9.07;;;;;;;21.43;62.33;100590.81;5068494;28;20066;-60
2021/06/12 09:52:52;;;;;;;14.02;9.35;;;;;;;21.58;62.18;100600.44;5066115;28;20059;-60
2021/06/12 09:55:26;;;;;;;13.57;8.57;;;;;;;21.60;61.98;100594.53;5067913;28;20083;-59
2021/06/12 09:57:51;;;;;;;11.02;8.60;;;;;;;21.56;62.01;100590.81;5061024;28;20111;-59
2021/06/12 10:00:27;;;;;;;11.63;8.30;;;;;;;21.60;61.92;100602.84;5066161;28;20156;-59
2021/06/12 10:02:52;;;;;;;13.50;9.48;;;;;;;21.58;62.04;100600.44;5062243;28;20581;-59
2021/06/12 10:05:17;;;;;;;12.90;7.85;;;;;;;21.62;62.14;100606.09;5069603;28;20051;-59
2021/06/12 10:07:43;;;;;;;11.27;8.65;;;;;;;21.75;61.94;100610.47;5062070;28;20059;-58
2021/06/12 10:10:14;;;;;;;10.45;8.18;;;;;;;21.95;61.44;100610.66;5066695;28;20020;-58
2021/06/12 10:12:40;;;;;;;18.38;13.43;;;;;;;22.00;61.12;100605.69;5061050;28;20117;-58
2021/06/12 10:15:08;;;;;;;9.65;8.55;;;;;;;22.06;60.76;100606.25;5060268;28;20058;-60
2021/06/12 10:17:41;;;;;;;11.80;8.43;;;;;;;22.13;60.80;100606.44;5069594;28;20163;-59
2021/06/12 10:20:08;;;;;;;16.85;9.57;;;;;;;22.24;60.71;100597.59;5061507;28;20060;-58
2021/06/12 10:22:34;;;;;;;10.82;8.57;;;;;;;22.31;60.47;100600.59;5068012;28;20036;-59
2021/06/12 10:25:00;;;;;;;10.45;8.07;;;;;;;22.50;60.56;100599.13;5066493;28;20027;-59
2021/06/12 10:27:26;;;;;;;12.15;10.18;;;;;;;22.64;59.94;100600.34;5068165;28;20040;-58
2021/06/12 10:29:52;;;;;;;15.20;9.50;;;;;;;22.61;59.59;100603.00;5065390;28;20029;-59
2021/06/12 10:32:19;;;;;;;9.98;8.77;;;;;;;22.61;59.53;100589.91;5068732;28;20044;-59
2021/06/12 10:34:49;;;;;;;10.52;8.20;;;;;;;22.58;59.25;100606.50;5068281;28;20060;-58
2021/06/12 10:37:17;;;;;;;13.45;8.48;;;;;;;22.63;59.52;100609.03;5069075;28;20025;-59
2021/06/12 10:39:42;;;;;;;11.68;8.43;;;;;;;22.75;59.54;100597.03;5070407;28;20035;-59
2021/06/12 10:42:14;;;;;;;10.13;7.82;;;;;;;22.94;59.16;100599.91;5069832;28;20536;-59
2021/06/12 10:44:41;;;;;;;10.90;8.95;;;;;;;23.11;58.56;100601.53;5068452;28;20028;-59
2021/06/12 10:47:07;;;;;;;11.70;7.25;;;;;;;23.25;58.60;100605.84;5068553;28;20029;-58
2021/06/12 10:49:34;;;;;;;8.90;7.25;;;;;;;23.41;58.64;100608.63;5068010;28;20120;-59
2021/06/12 10:52:00;;;;;;;11.25;7.88;;;;;;;23.36;57.93;100586.63;5069805;28;20110;-58
2021/06/12 10:54:35;;;;;;;11.90;7.75;;;;;;;23.52;57.47;100606.88;5069329;28;20024;-60
2021/06/12 10:57:16;;;;;;;12.50;8.90;;;;;;;23.43;57.43;100609.03;5068187;28;20056;-60
2021/06/12 10:59:47;;;;;;;8.85;7.57;;;;;;;23.30;57.25;100585.28;5065166;28;20106;-58
2021/06/12 11:04:52;;;;;;;9.60;7.78;;;;;;;23.19;58.12;100596.16;5064641;28;20070;-58
2021/06/12 11:07:26;;;;;;;9.93;8.02;;;;;;;23.08;57.69;100599.47;5067294;28;20024;-58
2021/06/12 11:09:52;;;;;;;9.27;7.68;;;;;;;23.10;58.02;100599.91;5067607;28;20113;-58
2021/06/12 11:12:17;;;;;;;10.07;7.85;;;;;;;23.20;57.65;100592.22;5079162;28;20021;-58
2021/06/12 11:15:01;;;;;;;10.75;8.18;;;;;;;23.24;57.46;100587.53;5070036;28;20078;-58
2021/06/12 11:17:27;;;;;;;11.80;8.52;;;;;;;23.17;57.51;100585.38;5072543;28;20408;-58
2021/06/12 11:19:58;;;;;;;10.35;7.50;;;;;;;23.21;57.46;100596.63;5078163;28;20119;-58